Time;durP1;ratioP1;P1;durP2;ratioP2;P2;SDS_P1;SDS_P2;PMS_P1;PMS_P2;Temp;Humidity;BMP_temperature;BMP_pressure;BME280_temperature;BME280_humidity;BME280_pressure;Samples;Min_cycle;Max_cycle;Signal;HPM_P1;HPM_P2
2021/12/24 00:01:46;;;;;;;70.95;39.80;;;;;;;;;;5095121;28;20031;-77
2021/12/24 00:04:12;;;;;;;62.67;35.17;;;;;;;;;;5094958;28;20739;-77
2021/12/24 00:06:38;;;;;;;60.58;34.92;;;;;;;;;;5097491;28;20435;-76
2021/12/24 00:09:04;;;;;;;64.57;38.33;;;;;;;;;;5095169;28;20016;-76
2021/12/24 00:11:30;;;;;;;57.10;33.72;;;;;;;;;;5094531;28;20024;-79
2021/12/24 00:13:55;;;;;;;52.13;30.23;;;;;;;;;;5096600;28;20031;-77
2021/12/24 00:16:30;;;;;;;81.85;46.50;;;;;;;;;;5095775;28;20466;-77
2021/12/24 00:35:12;;;;;;;95.55;46.83;;;;;;;;;;5116497;27;20052;-75
2021/12/24 00:37:42;;;;;;;88.07;42.70;;;;;;;;;;5114851;27;20153;-76
2021/12/24 00:42:36;;;;;;;63.75;36.10;;;;;;;;;;5116135;27;20385;-77
2021/12/24 00:45:02;;;;;;;58.17;29.95;;;;;;;;;;5114514;27;20011;-78
2021/12/24 00:47:27;;;;;;;46.90;25.08;;;;;;;;;;5114682;27;20442;-77
2021/12/24 00:49:53;;;;;;;52.42;28.70;;;;;;;;;;5114876;27;20030;-76
2021/12/24 00:57:46;;;;;;;32.45;18.58;;;;;;;;;;5099805;27;20053;-76
2021/12/24 01:00:17;;;;;;;29.15;16.85;;;;;;;;;;5106299;27;20277;-78
2021/12/24 01:02:43;;;;;;;35.38;20.17;;;;;;;;;;5117058;27;20015;-78
2021/12/24 01:05:09;;;;;;;37.05;19.40;;;;;;;;;;5115907;27;20522;-77
2021/12/24 01:07:35;;;;;;;43.33;24.25;;;;;;;;;;5114470;28;20458;-76
2021/12/24 01:10:00;;;;;;;45.85;23.98;;;;;;;;;;5114542;28;20030;-78
2021/12/24 01:12:26;;;;;;;47.95;25.08;;;;;;;;;;5115620;28;20020;-78
2021/12/24 01:14:51;;;;;;;133.88;67.57;;;;;;;;;;5114558;28;20034;-77
2021/12/24 01:20:45;;;;;;;41.13;21.27;;;;;;;;;;5072619;28;20458;-76
2021/12/24 01:25:55;;;;;;;61.92;33.25;;;;;;;;;;5115522;27;20055;-77
2021/12/24 01:39:38;;;;;;;62.67;32.55;;;;;;;;;;5119553;27;20623;-77
2021/12/24 01:44:48;;;;;;;56.47;28.25;;;;;;;;;;5119909;27;20030;-77
2021/12/24 01:47:13;;;;;;;33.95;19.08;;;;;;;;;;5118005;27;20015;-78
2021/12/24 01:49:38;;;;;;;23.15;13.52;;;;;;;;;;5119806;27;20023;-77
2021/12/24 01:52:04;;;;;;;18.75;11.23;;;;;;;;;;5119274;27;20034;-78
2021/12/24 01:54:30;;;;;;;30.15;18.70;;;;;;;;;;5119580;27;20015;-76
2021/12/24 01:56:55;;;;;;;25.52;14.77;;;;;;;;;;5118446;27;20016;-76
2021/12/24 01:59:21;;;;;;;28.77;16.90;;;;;;;;;;5119070;27;20048;-77
2021/12/24 02:01:46;;;;;;;24.20;14.20;;;;;;;;;;5119495;27;20031;-78
2021/12/24 02:04:13;;;;;;;34.47;17.77;;;;;;;;;;5118053;27;20035;-78
2021/12/24 02:06:39;;;;;;;31.45;17.58;;;;;;;;;;5117236;27;20015;-77
2021/12/24 02:09:05;;;;;;;29.42;17.52;;;;;;;;;;5119221;27;20517;-77
2021/12/24 02:11:30;;;;;;;25.02;15.07;;;;;;;;;;5118062;27;20029;-75
2021/12/24 02:13:56;;;;;;;21.42;13.05;;;;;;;;;;5115401;27;20049;-75
2021/12/24 02:16:39;;;;;;;35.17;18.80;;;;;;;;;;5106909;27;20020;-77
2021/12/24 02:30:01;;;;;;;39.10;20.73;;;;;;;;;;5098752;28;20135;-77
2021/12/24 02:32:26;;;;;;;70.53;39.47;;;;;;;;;;5097111;28;20024;-76
2021/12/24 02:34:52;;;;;;;58.88;31.80;;;;;;;;;;5098069;28;20439;-76
2021/12/24 02:37:18;;;;;;;52.65;30.02;;;;;;;;;;5096908;28;20072;-78
2021/12/24 02:39:44;;;;;;;51.63;27.75;;;;;;;;;;5096826;28;20024;-77
2021/12/24 02:42:10;;;;;;;33.03;19.23;;;;;;;;;;5096581;28;20023;-76
2021/12/24 02:44:36;;;;;;;28.58;14.73;;;;;;;;;;5097922;28;20106;-78
2021/12/24 02:47:57;;;;;;;24.98;14.98;;;;;;;;;;5096508;28;20157;-77
2021/12/24 02:55:03;;;;;;;24.88;13.65;;;;;;;;;;5097681;28;20464;-76
2021/12/24 02:57:31;;;;;;;21.15;12.95;;;;;;;;;;5104803;27;20052;-78
2021/12/24 03:00:02;;;;;;;19.52;11.63;;;;;;;;;;5100773;27;20039;-77
2021/12/24 03:02:28;;;;;;;21.15;13.23;;;;;;;;;;5098081;28;20039;-77
2021/12/24 03:04:53;;;;;;;18.70;11.15;;;;;;;;;;5096217;28;20050;-77
2021/12/24 03:07:19;;;;;;;25.50;14.98;;;;;;;;;;5095974;28;20055;-77
2021/12/24 03:09:44;;;;;;;25.80;13.60;;;;;;;;;;5095964;28;20038;-78
2021/12/24 03:12:10;;;;;;;46.75;24.48;;;;;;;;;;5096001;28;20473;-77
2021/12/24 03:14:35;;;;;;;46.67;24.95;;;;;;;;;;5098678;28;20015;-76
2021/12/24 03:17:06;;;;;;;34.88;19.08;;;;;;;;;;5098340;28;20949;-77
2021/12/24 03:19:33;;;;;;;21.80;13.32;;;;;;;;;;5095978;28;20015;-77
2021/12/24 03:24:50;;;;;;;14.10;8.73;;;;;;;;;;5087744;28;20032;-77
2021/12/24 03:27:16;;;;;;;27.02;12.93;;;;;;;;;;5099506;27;20537;-76
2021/12/24 03:29:42;;;;;;;20.92;10.85;;;;;;;;;;5103605;27;20110;-79
2021/12/24 03:32:08;;;;;;;30.58;15.75;;;;;;;;;;5097667;28;20046;-77
2021/12/24 03:34:33;;;;;;;30.20;17.20;;;;;;;;;;5095935;28;20110;-76
2021/12/24 03:36:59;;;;;;;27.05;14.63;;;;;;;;;;5097436;28;20098;-75
2021/12/24 03:39:24;;;;;;;35.65;19.42;;;;;;;;;;5097025;28;20066;-75
2021/12/24 03:41:49;;;;;;;23.65;13.43;;;;;;;;;;5094605;28;20032;-76
2021/12/24 03:44:17;;;;;;;15.57;10.85;;;;;;;;;;5095073;28;20031;-76
2021/12/24 03:49:19;;;;;;;28.92;14.23;;;;;;;;;;5095842;28;20701;-76
2021/12/24 03:51:56;;;;;;;20.48;11.38;;;;;;;;;;5095322;28;20039;-76
2021/12/24 03:57:05;;;;;;;17.65;9.93;;;;;;;;;;5094789;28;20033;-75
2021/12/24 03:59:31;;;;;;;20.95;11.73;;;;;;;;;;5094718;28;20114;-76
2021/12/24 04:01:56;;;;;;;28.00;15.85;;;;;;;;;;5093935;28;20028;-76
2021/12/24 04:04:21;;;;;;;21.23;11.18;;;;;;;;;;5094556;28;20103;-77
2021/12/24 04:06:47;;;;;;;20.45;11.05;;;;;;;;;;5094621;28;20509;-78
2021/12/24 04:09:13;;;;;;;24.92;14.23;;;;;;;;;;5094749;28;20072;-76
2021/12/24 04:11:39;;;;;;;16.52;10.45;;;;;;;;;;5094739;28;20408;-75
2021/12/24 04:14:05;;;;;;;15.68;8.98;;;;;;;;;;5094576;28;20427;-76
2021/12/24 04:16:30;;;;;;;16.95;9.88;;;;;;;;;;5096306;28;20054;-75
2021/12/24 04:26:49;;;;;;;58.50;25.33;;;;;;;;;;5095784;28;20031;-76
2021/12/24 04:29:14;;;;;;;136.85;52.17;;;;;;;;;;5096237;28;20272;-77
2021/12/24 04:31:45;;;;;;;110.38;43.22;;;;;;;;;;5094199;28;20788;-76
2021/12/24 04:34:11;;;;;;;269.08;114.30;;;;;;;;;;5094601;28;20019;-74
2021/12/24 05:01:22;;;;;;;65.65;36.58;;;;;;;;;;5095816;28;20047;-78
2021/12/24 05:03:48;;;;;;;54.40;31.70;;;;;;;;;;5093935;28;20024;-77
2021/12/24 05:08:57;;;;;;;26.50;15.18;;;;;;;;;;5094981;28;20035;-76
2021/12/24 05:11:23;;;;;;;22.27;12.65;;;;;;;;;;5093982;28;20056;-77
2021/12/24 05:13:49;;;;;;;23.23;12.23;;;;;;;;;;5095633;28;20462;-77
2021/12/24 05:21:35;;;;;;;19.00;11.13;;;;;;;;;;5095025;28;20186;-76
2021/12/24 05:24:02;;;;;;;30.63;18.58;;;;;;;;;;5094881;28;20019;-75
2021/12/24 05:26:28;;;;;;;21.88;13.15;;;;;;;;;;5093720;28;20085;-76
2021/12/24 05:28:53;;;;;;;18.92;11.77;;;;;;;;;;5096123;28;20092;-78
2021/12/24 05:31:19;;;;;;;17.63;11.10;;;;;;;;;;5095162;28;20446;-78
2021/12/24 05:33:45;;;;;;;28.95;17.20;;;;;;;;;;5093669;28;20057;-77
2021/12/24 05:36:10;;;;;;;55.97;32.88;;;;;;;;;;5093492;28;20023;-78
2021/12/24 05:38:35;;;;;;;32.90;20.85;;;;;;;;;;5093797;28;20016;-78
2021/12/24 05:41:01;;;;;;;51.20;34.47;;;;;;;;;;5094852;28;20035;-77
2021/12/24 05:43:26;;;;;;;21.40;14.95;;;;;;;;;;5095171;28;20018;-75
2021/12/24 05:45:52;;;;;;;44.58;26.40;;;;;;;;;;5092474;28;20489;-76
2021/12/24 05:48:17;;;;;;;32.78;20.50;;;;;;;;;;5093578;28;20015;-77
2021/12/24 05:50:42;;;;;;;34.65;21.05;;;;;;;;;;5094996;28;20024;-77
2021/12/24 05:53:08;;;;;;;51.85;29.42;;;;;;;;;;5095224;28;20019;-76
2021/12/24 05:55:33;;;;;;;123.20;66.55;;;;;;;;;;5093738;28;20020;-76
2021/12/24 05:57:58;;;;;;;130.75;73.68;;;;;;;;;;5095433;28;20015;-76
2021/12/24 06:00:24;;;;;;;103.00;59.88;;;;;;;;;;5094252;28;20058;-77
2021/12/24 06:02:49;;;;;;;80.50;46.35;;;;;;;;;;5094246;28;20042;-77
2021/12/24 06:05:15;;;;;;;43.47;23.90;;;;;;;;;;5093886;28;20521;-76
2021/12/24 06:07:40;;;;;;;84.28;45.97;;;;;;;;;;5093358;28;20455;-76
2021/12/24 06:10:06;;;;;;;51.28;29.98;;;;;;;;;;5094688;28;20020;-75
2021/12/24 06:12:32;;;;;;;92.85;47.25;;;;;;;;;;5094539;28;20031;-74
2021/12/24 06:15:03;;;;;;;31.98;18.58;;;;;;;;;;5093445;28;20369;-75
2021/12/24 06:17:28;;;;;;;58.50;31.30;;;;;;;;;;5093435;28;20024;-76
2021/12/24 06:19:53;;;;;;;44.30;23.30;;;;;;;;;;5091372;27;20020;-76
2021/12/24 06:22:19;;;;;;;108.68;58.40;;;;;;;;;;5094712;28;20351;-76
2021/12/24 06:24:44;;;;;;;68.25;36.00;;;;;;;;;;5097094;28;20651;-76
2021/12/24 06:27:09;;;;;;;33.97;18.80;;;;;;;;;;5098474;28;20015;-76
2021/12/24 06:29:35;;;;;;;97.32;52.67;;;;;;;;;;5098441;28;20049;-76
2021/12/24 06:32:00;;;;;;;65.75;35.55;;;;;;;;;;5098143;28;20442;-77
2021/12/24 06:34:30;;;;;;;57.35;27.15;;;;;;;;;;5113685;27;20024;-76
2021/12/24 06:36:56;;;;;;;14.68;9.57;;;;;;;;;;5098484;28;20462;-75
2021/12/24 06:39:21;;;;;;;112.03;61.40;;;;;;;;;;5097759;28;20023;-76
2021/12/24 06:41:47;;;;;;;27.80;16.73;;;;;;;;;;5098287;28;20038;-75
2021/12/24 06:44:12;;;;;;;34.55;21.40;;;;;;;;;;5098917;28;20020;-76
2021/12/24 06:46:38;;;;;;;27.95;17.27;;;;;;;;;;5098217;28;20110;-75
2021/12/24 06:49:04;;;;;;;12.25;8.85;;;;;;;;;;5098035;28;20023;-77
2021/12/24 06:51:29;;;;;;;17.60;10.95;;;;;;;;;;5099115;28;20042;-76
2021/12/24 06:53:54;;;;;;;19.35;10.50;;;;;;;;;;5098236;28;20069;-76
2021/12/24 06:56:20;;;;;;;32.15;19.88;;;;;;;;;;5096170;28;20019;-76
2021/12/24 06:58:46;;;;;;;12.68;8.68;;;;;;;;;;5114344;27;20061;-76
2021/12/24 07:01:11;;;;;;;44.35;30.50;;;;;;;;;;5097735;28;20603;-75
2021/12/24 07:03:39;;;;;;;11.00;7.32;;;;;;;;;;5096172;28;20039;-76
2021/12/24 07:06:05;;;;;;;26.27;16.75;;;;;;;;;;5097835;28;20015;-78
2021/12/24 07:08:30;;;;;;;16.70;11.07;;;;;;;;;;5095420;28;20441;-76
2021/12/24 07:10:56;;;;;;;12.05;7.72;;;;;;;;;;5097457;28;20035;-76
2021/12/24 07:13:21;;;;;;;13.90;11.23;;;;;;;;;;5096130;28;20019;-76
2021/12/24 07:15:46;;;;;;;10.95;8.57;;;;;;;;;;5095514;28;20024;-78
2021/12/24 07:18:12;;;;;;;23.45;14.70;;;;;;;;;;5097367;28;20085;-75
2021/12/24 07:20:37;;;;;;;12.48;9.35;;;;;;;;;;5112862;27;20031;-78
2021/12/24 07:23:03;;;;;;;12.43;8.90;;;;;;;;;;5097252;28;20023;-74
2021/12/24 07:25:29;;;;;;;140.75;73.78;;;;;;;;;;5095816;28;20043;-74
2021/12/24 07:27:54;;;;;;;139.93;74.97;;;;;;;;;;5097030;28;20054;-78
2021/12/24 07:30:20;;;;;;;182.30;97.85;;;;;;;;;;5097090;28;20044;-76
2021/12/24 07:32:46;;;;;;;86.18;42.83;;;;;;;;;;5098519;28;20034;-75
2021/12/24 07:35:11;;;;;;;45.90;26.27;;;;;;;;;;5094754;28;20016;-76
2021/12/24 07:37:37;;;;;;;48.92;32.47;;;;;;;;;;5095356;28;20317;-77
2021/12/24 07:40:04;;;;;;;87.70;49.08;;;;;;;;;;5096977;28;20095;-77
2021/12/24 07:42:29;;;;;;;39.50;23.23;;;;;;;;;;5099694;27;20019;-75
2021/12/24 07:44:55;;;;;;;31.10;20.70;;;;;;;;;;5118153;27;20113;-75
2021/12/24 07:47:27;;;;;;;31.08;21.90;;;;;;;;;;5116258;27;20361;-75
2021/12/24 07:50:01;;;;;;;55.42;29.48;;;;;;;;;;5117786;27;20011;-75
2021/12/24 07:52:26;;;;;;;19.77;14.18;;;;;;;;;;5117995;27;20464;-75
2021/12/24 07:54:54;;;;;;;9.10;6.47;;;;;;;;;;5115657;27;20151;-76
2021/12/24 07:57:20;;;;;;;12.65;9.30;;;;;;;;;;5115319;27;20019;-76
2021/12/24 07:59:45;;;;;;;14.18;11.85;;;;;;;;;;5116998;27;20051;-75
2021/12/24 08:02:14;;;;;;;17.48;12.80;;;;;;;;;;5115524;27;20031;-76
2021/12/24 08:04:39;;;;;;;36.08;22.83;;;;;;;;;;5115210;27;20022;-74
2021/12/24 08:07:05;;;;;;;49.13;30.42;;;;;;;;;;5116087;27;20019;-74
2021/12/24 08:09:30;;;;;;;32.75;22.05;;;;;;;;;;5117331;27;20015;-75
2021/12/24 08:11:56;;;;;;;19.73;14.13;;;;;;;;;;5116370;27;20061;-77
2021/12/24 08:14:21;;;;;;;8.35;6.20;;;;;;;;;;5098017;27;20031;-75
2021/12/24 08:16:46;;;;;;;12.55;7.70;;;;;;;;;;5094173;28;20019;-75
2021/12/24 08:19:15;;;;;;;8.98;6.03;;;;;;;;;;5096141;28;20030;-75
2021/12/24 08:21:41;;;;;;;13.30;9.80;;;;;;;;;;5098368;27;20035;-75
2021/12/24 08:24:06;;;;;;;20.08;11.13;;;;;;;;;;5094333;28;20019;-75
2021/12/24 08:26:32;;;;;;;16.73;12.38;;;;;;;;;;5096173;28;20034;-74
2021/12/24 08:28:58;;;;;;;25.67;16.88;;;;;;;;;;5096006;28;20026;-76
2021/12/24 08:31:23;;;;;;;19.92;12.50;;;;;;;;;;5101494;27;20028;-75
2021/12/24 08:33:49;;;;;;;17.58;11.82;;;;;;;;;;5116329;27;20054;-76
2021/12/24 08:36:14;;;;;;;25.23;15.85;;;;;;;;;;5117848;27;20023;-76
2021/12/24 08:38:39;;;;;;;16.05;11.13;;;;;;;;;;5116507;27;20011;-77
2021/12/24 08:41:05;;;;;;;16.52;12.75;;;;;;;;;;5117338;27;20056;-76
2021/12/24 08:43:31;;;;;;;18.90;13.25;;;;;;;;;;5116294;27;20011;-75
2021/12/24 08:45:56;;;;;;;20.25;13.68;;;;;;;;;;5115490;27;20026;-76
2021/12/24 08:48:22;;;;;;;20.52;13.88;;;;;;;;;;5116887;27;20441;-74
2021/12/24 08:50:47;;;;;;;27.40;17.00;;;;;;;;;;5116674;27;21009;-76
2021/12/24 08:53:12;;;;;;;14.57;11.73;;;;;;;;;;5114503;27;20015;-75
2021/12/24 08:55:38;;;;;;;33.83;18.52;;;;;;;;;;5116061;27;20098;-74
2021/12/24 08:58:04;;;;;;;35.55;20.73;;;;;;;;;;5114658;27;20027;-74
2021/12/24 09:00:29;;;;;;;16.30;12.32;;;;;;;;;;5115014;27;20039;-74
2021/12/24 09:02:56;;;;;;;39.22;22.33;;;;;;;;;;5114915;27;20517;-73
2021/12/24 09:05:22;;;;;;;17.05;10.80;;;;;;;;;;5116430;27;20090;-74
2021/12/24 09:07:47;;;;;;;18.70;11.15;;;;;;;;;;5116479;27;20098;-76
2021/12/24 09:10:13;;;;;;;30.50;18.30;;;;;;;;;;5115778;28;20472;-75
2021/12/24 09:12:42;;;;;;;19.67;11.93;;;;;;;;;;5116988;28;20015;-75
2021/12/24 09:15:07;;;;;;;11.43;8.38;;;;;;;;;;5115181;27;20016;-74
2021/12/24 09:17:33;;;;;;;18.63;10.98;;;;;;;;;;5116753;27;20120;-74
2021/12/24 09:19:58;;;;;;;12.00;8.52;;;;;;;;;;5116354;27;20092;-73
2021/12/24 09:22:30;;;;;;;13.90;10.00;;;;;;;;;;5116367;27;20074;-74
2021/12/24 09:24:56;;;;;;;16.83;10.52;;;;;;;;;;5115882;27;20418;-73
2021/12/24 09:27:22;;;;;;;14.52;8.95;;;;;;;;;;5115759;27;20358;-73
2021/12/24 09:29:47;;;;;;;31.88;21.30;;;;;;;;;;5115793;27;20439;-72
2021/12/24 09:32:13;;;;;;;14.27;9.20;;;;;;;;;;5116581;27;20025;-74
2021/12/24 09:34:38;;;;;;;20.02;11.48;;;;;;;;;;5114229;28;20011;-75
2021/12/24 09:37:04;;;;;;;16.77;9.32;;;;;;;;;;5115984;27;20654;-72
2021/12/24 09:39:29;;;;;;;14.98;9.80;;;;;;;;;;5116679;27;20412;-74
2021/12/24 09:41:55;;;;;;;18.67;12.82;;;;;;;;;;5116683;27;20031;-73
2021/12/24 09:44:20;;;;;;;23.33;14.38;;;;;;;;;;5116323;27;20103;-74
2021/12/24 09:46:46;;;;;;;119.38;58.33;;;;;;;;;;5115668;27;20026;-74
2021/12/24 09:49:12;;;;;;;102.47;48.20;;;;;;;;;;5113945;28;20016;-73
2021/12/24 09:51:40;;;;;;;86.35;48.85;;;;;;;;;;5115776;27;20026;-73
2021/12/24 09:54:13;;;;;;;36.15;23.15;;;;;;;;;;5116089;27;20446;-73
2021/12/24 09:56:38;;;;;;;14.05;8.45;;;;;;;;;;5115624;27;20015;-73
2021/12/24 09:59:04;;;;;;;11.25;9.20;;;;;;;;;;5116985;27;20150;-73
2021/12/24 10:01:30;;;;;;;11.00;7.88;;;;;;;;;;5117834;27;20347;-74
2021/12/24 10:04:04;;;;;;;16.98;9.73;;;;;;;;;;5120410;27;20469;-74
2021/12/24 10:06:30;;;;;;;11.75;8.02;;;;;;;;;;5117883;27;20033;-74
2021/12/24 10:09:16;;;;;;;12.18;7.75;;;;;;;;;;5117920;27;20739;-73
2021/12/24 10:11:49;;;;;;;21.45;13.35;;;;;;;;;;5119332;27;20065;-72
2021/12/24 10:14:16;;;;;;;25.13;13.02;;;;;;;;;;5117893;27;20460;-72
2021/12/24 10:16:43;;;;;;;21.23;14.23;;;;;;;;;;5117510;27;20027;-73
2021/12/24 10:19:09;;;;;;;29.27;14.98;;;;;;;;;;5119124;27;20023;-73
2021/12/24 10:21:35;;;;;;;12.80;8.98;;;;;;;;;;5119468;27;20110;-76
2021/12/24 10:24:01;;;;;;;13.27;8.75;;;;;;;;;;5118657;27;20505;-75
2021/12/24 10:26:42;;;;;;;46.22;27.63;;;;;;;;;;5119938;27;20110;-74
2021/12/24 10:29:09;;;;;;;19.48;11.60;;;;;;;;;;5117475;27;20368;-74
2021/12/24 10:31:36;;;;;;;11.50;7.80;;;;;;;;;;5118917;27;20027;-74
2021/12/24 10:34:05;;;;;;;9.63;6.47;;;;;;;;;;5118993;27;20026;-75
2021/12/24 10:36:31;;;;;;;;;;;;;;;;;;5120274;27;20019;-73
2021/12/24 10:38:56;;;;;;;11.33;7.10;;;;;;;;;;5118419;27;19976;-73
2021/12/24 10:41:24;;;;;;;7.57;5.35;;;;;;;;;;5118420;27;20353;-73
2021/12/24 10:43:51;;;;;;;9.50;5.57;;;;;;;;;;5111402;27;20030;-77
2021/12/24 10:46:18;;;;;;;14.60;9.55;;;;;;;;;;5108131;27;20022;-75
2021/12/24 10:49:27;;;;;;;8.35;4.97;;;;;;;;;;5118762;27;20053;-72
2021/12/24 10:52:11;;;;;;;8.50;5.78;;;;;;;;;;5088474;27;20027;-75
2021/12/24 10:54:53;;;;;;;6.70;4.93;;;;;;;;;;5118980;27;20020;-73
2021/12/24 10:57:19;;;;;;;9.98;6.60;;;;;;;;;;5118787;27;20022;-74
2021/12/24 10:59:49;;;;;;;18.67;8.30;;;;;;;;;;5119102;27;20304;-73
2021/12/24 11:02:14;;;;;;;7.10;5.22;;;;;;;;;;5118491;27;20054;-74
2021/12/24 11:04:40;;;;;;;10.30;6.40;;;;;;;;;;5117969;27;20055;-75
2021/12/24 11:07:25;;;;;;;9.00;6.70;;;;;;;;;;5118517;27;20023;-73
2021/12/24 11:10:06;;;;;;;8.40;7.32;;;;;;;;;;5117593;27;20007;-75
2021/12/24 11:12:35;;;;;;;9.50;8.15;;;;;;;;;;5118399;27;20023;-74
2021/12/24 11:15:00;;;;;;;12.10;7.80;;;;;;;;;;5118905;27;20026;-76
2021/12/24 11:17:38;;;;;;;8.48;7.07;;;;;;;;;;5111862;27;20256;-75
2021/12/24 11:20:08;;;;;;;7.50;6.35;;;;;;;;;;5106568;27;20018;-74
2021/12/24 11:22:48;;;;;;;9.25;7.82;;;;;;;;;;5105364;27;20050;-73
2021/12/24 11:25:14;;;;;;;9.13;7.00;;;;;;;;;;5096265;28;20507;-73
2021/12/24 11:27:39;;;;;;;6.97;4.93;;;;;;;;;;5108347;27;20090;-74
2021/12/24 11:30:05;;;;;;;7.05;5.65;;;;;;;;;;5116332;27;20023;-74
2021/12/24 11:32:30;;;;;;;9.15;6.15;;;;;;;;;;5116152;27;20060;-75
2021/12/24 11:34:55;;;;;;;8.35;5.82;;;;;;;;;;5118056;27;20047;-74
2021/12/24 11:37:21;;;;;;;4.40;3.95;;;;;;;;;;5117610;27;20019;-73
2021/12/24 11:39:46;;;;;;;17.48;12.02;;;;;;;;;;5118189;27;20016;-73
2021/12/24 11:42:13;;;;;;;10.32;6.40;;;;;;;;;;5117199;27;20477;-74
2021/12/24 11:44:38;;;;;;;9.00;4.07;;;;;;;;;;5117946;27;20026;-74
2021/12/24 11:47:04;;;;;;;6.72;4.82;;;;;;;;;;5118220;27;20015;-74
2021/12/24 11:49:29;;;;;;;7.82;5.75;;;;;;;;;;5117800;27;21008;-74
2021/12/24 11:51:55;;;;;;;6.95;4.68;;;;;;;;;;5117306;27;20127;-75
2021/12/24 11:54:20;;;;;;;7.25;4.85;;;;;;;;;;5115299;27;20029;-74
2021/12/24 11:56:49;;;;;;;8.48;5.50;;;;;;;;;;5116957;27;20125;-74
2021/12/24 11:59:15;;;;;;;5.75;4.55;;;;;;;;;;5116711;27;20369;-74
2021/12/24 12:01:41;;;;;;;8.05;5.78;;;;;;;;;;5116754;27;20030;-73
2021/12/24 12:04:18;;;;;;;9.82;7.00;;;;;;;;;;5116919;27;20354;-74
2021/12/24 12:06:43;;;;;;;8.00;6.25;;;;;;;;;;5117458;27;20022;-73
2021/12/24 12:09:12;;;;;;;9.93;5.60;;;;;;;;;;5115260;27;20023;-73
2021/12/24 12:11:40;;;;;;;7.63;5.53;;;;;;;;;;5117341;27;20075;-73
2021/12/24 12:14:05;;;;;;;8.13;6.28;;;;;;;;;;5116149;27;20029;-73
2021/12/24 12:16:40;;;;;;;9.38;5.25;;;;;;;;;;5113558;27;20015;-72
2021/12/24 12:19:15;;;;;;;20.27;13.80;;;;;;;;;;5116348;27;20493;-73
2021/12/24 12:21:43;;;;;;;6.60;4.82;;;;;;;;;;5116700;27;20026;-72
2021/12/24 12:26:41;;;;;;;5.97;4.78;;;;;;;;;;5116823;27;20019;-73
2021/12/24 12:29:12;;;;;;;3.95;3.55;;;;;;;;;;5116371;27;20023;-75
2021/12/24 12:31:38;;;;;;;10.32;7.68;;;;;;;;;;5116348;27;20027;-74
2021/12/24 12:34:03;;;;;;;6.82;5.30;;;;;;;;;;5117292;27;20015;-74
2021/12/24 12:36:40;;;;;;;11.43;7.05;;;;;;;;;;5116127;27;20011;-73
2021/12/24 12:39:25;;;;;;;11.90;5.80;;;;;;;;;;5116395;27;20019;-72
2021/12/24 12:41:50;;;;;;;17.52;12.95;;;;;;;;;;5117282;27;20764;-73
2021/12/24 12:44:15;;;;;;;7.55;6.13;;;;;;;;;;5115029;27;20019;-74
2021/12/24 12:46:42;;;;;;;14.75;10.55;;;;;;;;;;5116433;27;20461;-73
2021/12/24 12:49:08;;;;;;;19.73;14.88;;;;;;;;;;5117866;27;20083;-74
2021/12/24 12:51:48;;;;;;;23.55;17.30;;;;;;;;;;5117031;27;20019;-75
2021/12/24 12:54:34;;;;;;;15.55;11.13;;;;;;;;;;5116391;27;20015;-74
2021/12/24 12:57:08;;;;;;;13.25;8.63;;;;;;;;;;5115991;27;20404;-74
2021/12/24 12:59:34;;;;;;;11.48;9.05;;;;;;;;;;5115388;27;20488;-74
2021/12/24 13:02:01;;;;;;;15.93;11.77;;;;;;;;;;5116172;27;20023;-75
2021/12/24 13:04:26;;;;;;;13.80;10.45;;;;;;;;;;5116077;27;20045;-73
2021/12/24 13:06:53;;;;;;;14.23;10.25;;;;;;;;;;5116268;27;20026;-74
2021/12/24 13:09:23;;;;;;;6.95;5.05;;;;;;;;;;5117143;27;20072;-73
2021/12/24 13:11:50;;;;;;;9.40;6.88;;;;;;;;;;5115490;27;20079;-76
2021/12/24 13:14:16;;;;;;;14.52;9.48;;;;;;;;;;5116889;27;20051;-73
2021/12/24 13:16:54;;;;;;;18.45;12.70;;;;;;;;;;5116176;27;20015;-75
2021/12/24 13:19:28;;;;;;;18.05;12.52;;;;;;;;;;5116485;27;20437;-73
2021/12/24 13:24:46;;;;;;;10.80;7.88;;;;;;;;;;5115849;28;20034;-75
2021/12/24 13:27:12;;;;;;;11.98;8.40;;;;;;;;;;5115586;27;20011;-72
2021/12/24 13:29:37;;;;;;;12.38;8.50;;;;;;;;;;5116161;27;20067;-73
2021/12/24 13:32:04;;;;;;;15.52;10.80;;;;;;;;;;5116471;27;20015;-73
2021/12/24 13:34:29;;;;;;;28.45;16.67;;;;;;;;;;5118262;27;20114;-74
2021/12/24 13:36:59;;;;;;;21.65;16.73;;;;;;;;;;5117960;27;20422;-75
2021/12/24 13:39:24;;;;;;;17.90;12.02;;;;;;;;;;5118186;27;20014;-74
2021/12/24 13:41:59;;;;;;;11.05;6.80;;;;;;;;;;5119786;27;20084;-74
2021/12/24 13:44:26;;;;;;;17.73;11.27;;;;;;;;;;5118525;27;20508;-74
2021/12/24 13:47:01;;;;;;;16.33;11.52;;;;;;;;;;5119347;27;20060;-76
2021/12/24 13:55:19;;;;;;;25.77;14.48;;;;;;;;;;5075539;28;20020;-74
2021/12/24 13:57:56;;;;;;;13.20;9.95;;;;;;;;;;5110575;27;20031;-74
2021/12/24 14:00:21;;;;;;;22.67;13.63;;;;;;;;;;5119993;27;20139;-73
2021/12/24 14:02:54;;;;;;;11.40;7.43;;;;;;;;;;5118442;27;20454;-74
2021/12/24 14:05:20;;;;;;;14.98;9.57;;;;;;;;;;5117990;27;20751;-75
2021/12/24 14:07:47;;;;;;;13.18;8.80;;;;;;;;;;5117879;27;20850;-73
2021/12/24 14:10:22;;;;;;;8.57;6.10;;;;;;;;;;5120234;27;20023;-74
2021/12/24 14:12:48;;;;;;;14.32;9.40;;;;;;;;;;5118000;27;20022;-73
2021/12/24 14:15:15;;;;;;;13.60;8.82;;;;;;;;;;5119173;27;20019;-77
2021/12/24 14:23:22;;;;;;;23.83;12.73;;;;;;;;;;5115529;27;20047;-72
2021/12/24 14:25:54;;;;;;;23.30;12.80;;;;;;;;;;5120323;27;20027;-74
2021/12/24 14:28:22;;;;;;;17.98;10.30;;;;;;;;;;5119748;27;20105;-75
2021/12/24 14:30:47;;;;;;;21.52;12.98;;;;;;;;;;5098418;28;20137;-72
2021/12/24 14:33:13;;;;;;;15.38;10.18;;;;;;;;;;5099174;28;20455;-76
2021/12/24 14:35:43;;;;;;;13.90;8.40;;;;;;;;;;5098710;28;20492;-75
2021/12/24 14:38:15;;;;;;;26.35;14.85;;;;;;;;;;5099578;28;20016;-74
2021/12/24 14:40:40;;;;;;;21.55;12.93;;;;;;;;;;5099289;28;20031;-73
2021/12/24 14:43:13;;;;;;;12.13;9.80;;;;;;;;;;5097923;28;20361;-75
2021/12/24 14:45:40;;;;;;;12.18;7.70;;;;;;;;;;5097322;28;20012;-75
2021/12/24 14:48:21;;;;;;;12.13;7.32;;;;;;;;;;5098341;28;20024;-74
2021/12/24 14:50:54;;;;;;;12.20;7.95;;;;;;;;;;5098047;28;20090;-73
2021/12/24 14:53:52;;;;;;;40.25;25.73;;;;;;;;;;5098268;28;20020;-77
2021/12/24 14:56:20;;;;;;;32.15;19.38;;;;;;;;;;5079134;27;20050;-74
2021/12/24 14:58:45;;;;;;;13.80;9.68;;;;;;;;;;5119725;27;20015;-76
2021/12/24 15:01:10;;;;;;;13.52;9.70;;;;;;;;;;5116982;27;20030;-73
2021/12/24 15:03:39;;;;;;;21.85;14.73;;;;;;;;;;5118708;27;20054;-74
2021/12/24 15:06:18;;;;;;;14.18;9.35;;;;;;;;;;5118418;27;20063;-76
2021/12/24 15:08:44;;;;;;;20.77;13.18;;;;;;;;;;5119199;27;20050;-73
2021/12/24 15:11:20;;;;;;;19.42;12.13;;;;;;;;;;5117982;27;20069;-77
2021/12/24 15:13:53;;;;;;;25.50;17.98;;;;;;;;;;5117076;27;20102;-77
